Fulton County Airport Brown Field


Codes: KFTY/FTY
Name: Fulton County Airport Brown Field
City: Atlanta
Country: United States
Elevation: 841 ft.
Website:
Wikipedia:

Photos at Fulton County Airport Brown Field


   Photos courtesy of SpottingLog. You can add your own sightings and photos by signing up for a free trial today.



No photos found.

Weather at Fulton County Airport Brown Field


Time (UTC)DescriptionTempratureWindCloud coverageVisibilityPressureHumidity
13-Jun-2024 03:00Broken Clouds26°C7 mph, SE75%10000m1013hPa61%
13-Jun-2024 06:00Broken Clouds26°C4 mph, E83%10000m1013hPa59%
13-Jun-2024 09:00Overcast Clouds25°C7 mph, E89%10000m1013hPa61%
13-Jun-2024 12:00Overcast Clouds24°C7 mph, E97%10000m1016hPa62%
13-Jun-2024 15:00Overcast Clouds26°C7 mph, E100%10000m1016hPa56%
13-Jun-2024 18:00Overcast Clouds30°C4 mph, SE100%10000m1015hPa40%
13-Jun-2024 21:00Overcast Clouds31°C2 mph, SW100%10000m1014hPa35%
14-Jun-2024 00:00Overcast Clouds30°C4 mph, N100%10000m1014hPa39%
14-Jun-2024 03:00Broken Clouds28°C2 mph, NE61%10000m1014hPa44%
14-Jun-2024 06:00Scattered Clouds26°C4 mph, NE38%10000m1014hPa47%
14-Jun-2024 09:00Clear Sky24°C0 mph, E6%10000m1015hPa55%
14-Jun-2024 12:00Clear Sky25°C2 mph, N3%10000m1015hPa52%
14-Jun-2024 15:00Clear Sky33°C2 mph, NW0%10000m1015hPa32%
14-Jun-2024 18:00Clear Sky36°C4 mph, NW0%10000m1013hPa22%
14-Jun-2024 21:00Scattered Clouds36°C11 mph, NW49%10000m1011hPa23%
15-Jun-2024 00:00Scattered Clouds34°C9 mph, NW44%10000m1012hPa29%
15-Jun-2024 03:00Broken Clouds30°C4 mph, NW74%10000m1013hPa42%
15-Jun-2024 06:00Broken Clouds27°C4 mph, NW55%10000m1013hPa58%
15-Jun-2024 09:00Clear Sky26°C4 mph, NW0%10000m1013hPa62%
15-Jun-2024 12:00Clear Sky27°C4 mph, N0%10000m1014hPa57%
15-Jun-2024 15:00Clear Sky33°C4 mph, N2%10000m1015hPa37%
15-Jun-2024 18:00Clear Sky39°C2 mph, W7%10000m1013hPa24%
15-Jun-2024 21:00Few Clouds38°C9 mph, W13%10000m1011hPa23%
16-Jun-2024 00:00Broken Clouds34°C2 mph, N54%10000m1012hPa29%
16-Jun-2024 03:00Overcast Clouds32°C4 mph, NE95%10000m1014hPa36%
16-Jun-2024 06:00Overcast Clouds30°C4 mph, E97%10000m1014hPa42%
16-Jun-2024 09:00Scattered Clouds27°C7 mph, E46%10000m1015hPa55%
16-Jun-2024 12:00Scattered Clouds27°C9 mph, E41%10000m1017hPa57%
16-Jun-2024 15:00Scattered Clouds32°C7 mph, E44%10000m1017hPa40%
16-Jun-2024 18:00Scattered Clouds37°C9 mph, SE44%10000m1016hPa30%
16-Jun-2024 21:00Overcast Clouds34°C2 mph, N94%10000m1015hPa36%
17-Jun-2024 00:00Light Rain30°C2 mph, E93%10000m1017hPa59%
17-Jun-2024 03:00Overcast Clouds28°C7 mph, SE100%10000m1019hPa58%
17-Jun-2024 06:00Overcast Clouds27°C9 mph, SE98%10000m1018hPa61%
17-Jun-2024 09:00Light Rain25°C7 mph, SE96%10000m1019hPa74%
17-Jun-2024 12:00Broken Clouds25°C7 mph, SE69%10000m1020hPa72%
17-Jun-2024 15:00Few Clouds31°C7 mph, SE24%10000m1020hPa49%
17-Jun-2024 18:00Scattered Clouds35°C9 mph, SE41%10000m1018hPa37%
17-Jun-2024 21:00Light Rain33°C7 mph, SE92%10000m1017hPa40%
18-Jun-2024 00:00Overcast Clouds32°C9 mph, E95%10000m1016hPa40%